AUA249 HECA-LOWW
Flight info
| Callsign | AUA249 |
|---|---|
| Flight time | 3h 26m |
| Altitude | 34000 |
| Route | MERPI A16 RASDA M855 USEBE N128 OTHON UN128 RDS UL609 MES UG18 GIKAS UN133 PEREN UL863 EVIVI L863 OKANA DCT IRGOR DCT TONDO DCT NATEX |
| Aircraft | A330/H-SDE3FGHIRWY/LB1 |
Departure
| Time | 2026-04-20 12:23 |
|---|---|
| Airport | Cairo International Airport (HECA) |
Arrival
| Time | 2026-04-20 15:49 |
|---|---|
| Airport | Vienna International Airport (LOWW) |
| Time | Latitude | Longitude | Altitude | Speed | Heading |
|---|---|---|---|---|---|
| 2026-04-20 11:50 | 30.12013 | 31.41935 | 362 ft | 0 kts | 69° |
| 2026-04-20 12:09 | 30.12008 | 31.41923 | 369 ft | 2 kts | 57° |
| 2026-04-20 12:09 | 30.11997 | 31.41908 | 367 ft | 2 kts | 45° |
| 2026-04-20 12:10 | 30.11985 | 31.41894 | 366 ft | 2 kts | 45° |
| 2026-04-20 12:10 | 30.11973 | 31.41880 | 369 ft | 2 kts | 45° |
| 2026-04-20 12:10 | 30.11962 | 31.41866 | 365 ft | 2 kts | 45° |
| 2026-04-20 12:10 | 30.11950 | 31.41853 | 363 ft | 2 kts | 45° |
| 2026-04-20 12:11 | 30.11938 | 31.41839 | 366 ft | 2 kts | 49° |
| 2026-04-20 12:11 | 30.11927 | 31.41824 | 366 ft | 2 kts | 49° |
| 2026-04-20 12:11 | 30.11916 | 31.41809 | 370 ft | 2 kts | 49° |
| 2026-04-20 12:11 | 30.11905 | 31.41795 | 367 ft | 2 kts | 49° |
| 2026-04-20 12:12 | 30.11894 | 31.41779 | 366 ft | 2 kts | 52° |
| 2026-04-20 12:12 | 30.11884 | 31.41764 | 365 ft | 2 kts | 52° |
| 2026-04-20 12:12 | 30.11873 | 31.41748 | 369 ft | 2 kts | 52° |
| 2026-04-20 12:12 | 30.11863 | 31.41733 | 367 ft | 2 kts | 52° |
| 2026-04-20 12:13 | 30.11853 | 31.41717 | 366 ft | 2 kts | 52° |
| 2026-04-20 12:13 | 30.11842 | 31.41702 | 367 ft | 2 kts | 52° |
| 2026-04-20 12:13 | 30.11832 | 31.41686 | 369 ft | 2 kts | 46° |
| 2026-04-20 12:13 | 30.11820 | 31.41672 | 369 ft | 2 kts | 48° |
| 2026-04-20 12:14 | 30.11809 | 31.41657 | 365 ft | 2 kts | 50° |
| 2026-04-20 12:14 | 30.11798 | 31.41642 | 367 ft | 2 kts | 50° |
| 2026-04-20 12:14 | 30.11787 | 31.41627 | 369 ft | 2 kts | 50° |
| 2026-04-20 12:14 | 30.11776 | 31.41612 | 363 ft | 2 kts | 51° |
| 2026-04-20 12:15 | 30.11767 | 31.41594 | 367 ft | 3 kts | 83° |
| 2026-04-20 12:15 | 30.11769 | 31.41572 | 367 ft | 3 kts | 118° |
| 2026-04-20 12:15 | 30.11780 | 31.41554 | 365 ft | 3 kts | 145° |
| 2026-04-20 12:15 | 30.11796 | 31.41542 | 365 ft | 0 kts | 167° |
| 2026-04-20 12:16 | 30.11783 | 31.41547 | 365 ft | 4 kts | 162° |
| 2026-04-20 12:16 | 30.11733 | 31.41562 | 367 ft | 9 kts | 166° |
| 2026-04-20 12:16 | 30.11683 | 31.41578 | 372 ft | 5 kts | 165° |
| 2026-04-20 12:17 | 30.11660 | 31.41585 | 374 ft | 4 kts | 166° |
| 2026-04-20 12:17 | 30.11605 | 31.41580 | 374 ft | 12 kts | 199° |
| 2026-04-20 12:17 | 30.11531 | 31.41510 | 376 ft | 13 kts | 225° |
| 2026-04-20 12:17 | 30.11525 | 31.41488 | 375 ft | 5 kts | 262° |
| 2026-04-20 12:18 | 30.11539 | 31.41438 | 376 ft | 8 kts | 322° |
| 2026-04-20 12:18 | 30.11597 | 31.41415 | 371 ft | 11 kts | 344° |
| 2026-04-20 12:18 | 30.11649 | 31.41425 | 369 ft | 5 kts | 40° |
| 2026-04-20 12:18 | 30.11667 | 31.41453 | 367 ft | 5 kts | 57° |
| 2026-04-20 12:19 | 30.11681 | 31.41485 | 370 ft | 4 kts | 66° |
| 2026-04-20 12:19 | 30.11688 | 31.41523 | 368 ft | 5 kts | 96° |
| 2026-04-20 12:19 | 30.11672 | 31.41552 | 370 ft | 4 kts | 129° |
| 2026-04-20 12:19 | 30.11648 | 31.41597 | 372 ft | 10 kts | 106° |
| 2026-04-20 12:20 | 30.11676 | 31.41694 | 377 ft | 18 kts | 52° |
| 2026-04-20 12:20 | 30.11784 | 31.41839 | 377 ft | 29 kts | 50° |
| 2026-04-20 12:20 | 30.11941 | 31.42051 | 377 ft | 40 kts | 49° |
| 2026-04-20 12:20 | 30.12143 | 31.42318 | 378 ft | 47 kts | 48° |
| 2026-04-20 12:21 | 30.12351 | 31.42596 | 376 ft | 45 kts | 49° |
| 2026-04-20 12:21 | 30.12465 | 31.42839 | 378 ft | 25 kts | 96° |
| 2026-04-20 12:21 | 30.12391 | 31.42923 | 381 ft | 11 kts | 171° |
| 2026-04-20 12:21 | 30.12323 | 31.42923 | 382 ft | 8 kts | 192° |
| 2026-04-20 12:22 | 30.12276 | 31.42896 | 383 ft | 6 kts | 218° |
| 2026-04-20 12:22 | 30.12238 | 31.42855 | 383 ft | 19 kts | 223° |
| 2026-04-20 12:22 | 30.11994 | 31.42559 | 387 ft | 83 kts | 231° |
| 2026-04-20 12:22 | 30.11498 | 31.41863 | 386 ft | 140 kts | 230° |
| 2026-04-20 12:23 | 30.10772 | 31.40855 | 422 ft | 184 kts | 235° |
| 2026-04-20 12:23 | 30.09927 | 31.39648 | 943 ft | 200 kts | 230° |
| 2026-04-20 12:23 | 30.08991 | 31.38382 | 1640 ft | 215 kts | 233° |
| 2026-04-20 12:23 | 30.07993 | 31.36972 | 2205 ft | 242 kts | 240° |
| 2026-04-20 12:24 | 30.07534 | 31.35127 | 3083 ft | 246 kts | 276° |
| 2026-04-20 12:24 | 30.08238 | 31.33382 | 3969 ft | 241 kts | 317° |
| 2026-04-20 12:24 | 30.09739 | 31.32723 | 4857 ft | 235 kts | 358° |
| 2026-04-20 12:24 | 30.11444 | 31.33008 | 5027 ft | 263 kts | 12° |
| 2026-04-20 12:25 | 30.13241 | 31.33784 | 5283 ft | 285 kts | 23° |
| 2026-04-20 12:25 | 30.14994 | 31.34854 | 6083 ft | 281 kts | 25° |
| 2026-04-20 12:25 | 30.16674 | 31.35931 | 6597 ft | 272 kts | 25° |
| 2026-04-20 12:25 | 30.18437 | 31.36603 | 6823 ft | 265 kts | 2° |
| 2026-04-20 12:26 | 30.20286 | 31.36708 | 7043 ft | 266 kts | 356° |
| 2026-04-20 12:26 | 30.22130 | 31.36541 | 7413 ft | 265 kts | 350° |
| 2026-04-20 12:26 | 30.23963 | 31.36217 | 8006 ft | 268 kts | 347° |
| 2026-04-20 12:26 | 30.25802 | 31.35831 | 8770 ft | 270 kts | 347° |
| 2026-04-20 12:27 | 30.27643 | 31.35437 | 9457 ft | 274 kts | 347° |
| 2026-04-20 12:27 | 30.29532 | 31.35048 | 10104 ft | 279 kts | 347° |
| 2026-04-20 12:27 | 30.31524 | 31.34657 | 10428 ft | 296 kts | 348° |
| 2026-04-20 12:27 | 30.33587 | 31.34271 | 10679 ft | 313 kts | 348° |
| 2026-04-20 12:28 | 30.35799 | 31.33871 | 10926 ft | 330 kts | 348° |
| 2026-04-20 12:28 | 30.38112 | 31.33462 | 11292 ft | 341 kts | 348° |
| 2026-04-20 12:28 | 30.40482 | 31.33049 | 11856 ft | 347 kts | 348° |
| 2026-04-20 12:28 | 30.42882 | 31.32633 | 12435 ft | 351 kts | 348° |
| 2026-04-20 12:29 | 30.45316 | 31.32209 | 13008 ft | 355 kts | 348° |
| 2026-04-20 12:29 | 30.47775 | 31.31809 | 13595 ft | 358 kts | 349° |
| 2026-04-20 12:29 | 30.50263 | 31.31448 | 14132 ft | 362 kts | 349° |
| 2026-04-20 12:29 | 30.52781 | 31.31107 | 14642 ft | 365 kts | 350° |
| 2026-04-20 12:30 | 30.55316 | 31.30772 | 15144 ft | 368 kts | 350° |
| 2026-04-20 12:30 | 30.57873 | 31.30434 | 15647 ft | 371 kts | 349° |
| 2026-04-20 12:30 | 30.60455 | 31.30089 | 16164 ft | 374 kts | 349° |
| 2026-04-20 12:30 | 30.63044 | 31.29741 | 16679 ft | 377 kts | 349° |
| 2026-04-20 12:31 | 30.65661 | 31.29385 | 17195 ft | 379 kts | 349° |
| 2026-04-20 12:31 | 30.68257 | 31.29030 | 17699 ft | 382 kts | 349° |
| 2026-04-20 12:31 | 30.70938 | 31.28662 | 18197 ft | 385 kts | 349° |
| 2026-04-20 12:31 | 30.73578 | 31.28299 | 18615 ft | 388 kts | 349° |
| 2026-04-20 12:32 | 30.76268 | 31.27929 | 19026 ft | 391 kts | 349° |
| 2026-04-20 12:32 | 30.78978 | 31.27556 | 19449 ft | 393 kts | 349° |
| 2026-04-20 12:32 | 30.81710 | 31.27180 | 19853 ft | 396 kts | 348° |
| 2026-04-20 12:32 | 30.84457 | 31.26802 | 20253 ft | 399 kts | 348° |
| 2026-04-20 12:33 | 30.87224 | 31.26421 | 20654 ft | 401 kts | 348° |
| 2026-04-20 12:33 | 30.90004 | 31.26038 | 21074 ft | 404 kts | 348° |
| 2026-04-20 12:33 | 30.92797 | 31.25654 | 21528 ft | 405 kts | 348° |
| 2026-04-20 12:33 | 30.95609 | 31.25267 | 21916 ft | 408 kts | 348° |
| 2026-04-20 12:34 | 30.98438 | 31.24876 | 22288 ft | 411 kts | 348° |
| 2026-04-20 12:34 | 31.01282 | 31.24483 | 22655 ft | 413 kts | 348° |
| 2026-04-20 12:34 | 31.04147 | 31.24085 | 23034 ft | 416 kts | 348° |
| 2026-04-20 12:34 | 31.07030 | 31.23686 | 23416 ft | 418 kts | 348° |
| 2026-04-20 12:35 | 31.09927 | 31.23285 | 23739 ft | 421 kts | 348° |
| 2026-04-20 12:35 | 31.12839 | 31.22883 | 24040 ft | 423 kts | 348° |
| 2026-04-20 12:35 | 31.15767 | 31.22479 | 24393 ft | 424 kts | 348° |
| 2026-04-20 12:35 | 31.18662 | 31.22079 | 24748 ft | 424 kts | 348° |
| 2026-04-20 12:36 | 31.21640 | 31.21667 | 25053 ft | 426 kts | 348° |
| 2026-04-20 12:36 | 31.24557 | 31.21262 | 25350 ft | 428 kts | 348° |
| 2026-04-20 12:36 | 31.27524 | 31.20850 | 25651 ft | 430 kts | 348° |
| 2026-04-20 12:36 | 31.30493 | 31.20438 | 25938 ft | 432 kts | 347° |
| 2026-04-20 12:37 | 31.33493 | 31.20021 | 26242 ft | 434 kts | 347° |
| 2026-04-20 12:37 | 31.36495 | 31.19603 | 26533 ft | 435 kts | 347° |
| 2026-04-20 12:37 | 31.39514 | 31.19182 | 26835 ft | 437 kts | 347° |
| 2026-04-20 12:37 | 31.42540 | 31.18761 | 27110 ft | 439 kts | 347° |
| 2026-04-20 12:38 | 31.45575 | 31.18338 | 27377 ft | 441 kts | 347° |
| 2026-04-20 12:38 | 31.48634 | 31.17911 | 27659 ft | 443 kts | 347° |
| 2026-04-20 12:38 | 31.51701 | 31.17483 | 27939 ft | 444 kts | 347° |
| 2026-04-20 12:38 | 31.54779 | 31.17054 | 28206 ft | 446 kts | 347° |
| 2026-04-20 12:39 | 31.60972 | 31.16188 | 28738 ft | 450 kts | 347° |
| 2026-04-20 12:39 | 31.64088 | 31.15752 | 29037 ft | 451 kts | 347° |
| 2026-04-20 12:39 | 31.67210 | 31.15315 | 29255 ft | 453 kts | 347° |
| 2026-04-20 12:40 | 31.70346 | 31.14876 | 29508 ft | 455 kts | 347° |
| 2026-04-20 12:40 | 31.73495 | 31.14434 | 29748 ft | 457 kts | 347° |
| 2026-04-20 12:40 | 31.76653 | 31.13991 | 29982 ft | 458 kts | 347° |
| 2026-04-20 12:40 | 31.79788 | 31.13551 | 30208 ft | 460 kts | 347° |
| 2026-04-20 12:41 | 31.82974 | 31.13104 | 30393 ft | 461 kts | 347° |
| 2026-04-20 12:41 | 31.86168 | 31.12655 | 30602 ft | 463 kts | 347° |
| 2026-04-20 12:41 | 31.89366 | 31.12205 | 30804 ft | 464 kts | 347° |
| 2026-04-20 12:41 | 31.92576 | 31.11754 | 30991 ft | 465 kts | 347° |
| 2026-04-20 12:42 | 31.95803 | 31.11299 | 31202 ft | 467 kts | 347° |
| 2026-04-20 12:42 | 31.99030 | 31.10844 | 31415 ft | 467 kts | 347° |
| 2026-04-20 12:42 | 32.02252 | 31.10391 | 31715 ft | 466 kts | 347° |
| 2026-04-20 12:42 | 32.05473 | 31.09934 | 32000 ft | 465 kts | 346° |
| 2026-04-20 12:43 | 32.08684 | 31.09477 | 32275 ft | 464 kts | 346° |
| 2026-04-20 12:43 | 32.11888 | 31.09020 | 32526 ft | 463 kts | 346° |
| 2026-04-20 12:43 | 32.15086 | 31.08565 | 32810 ft | 463 kts | 346° |
| 2026-04-20 12:43 | 32.18283 | 31.08111 | 33077 ft | 462 kts | 346° |
| 2026-04-20 12:44 | 32.21465 | 31.07660 | 33318 ft | 461 kts | 346° |
| 2026-04-20 12:44 | 32.24647 | 31.07208 | 33565 ft | 461 kts | 346° |
| 2026-04-20 12:44 | 32.27828 | 31.06757 | 33798 ft | 460 kts | 346° |
| 2026-04-20 12:44 | 32.31015 | 31.06304 | 33977 ft | 459 kts | 346° |
| 2026-04-20 12:45 | 32.34173 | 31.05858 | 34001 ft | 455 kts | 346° |
| 2026-04-20 12:45 | 32.40383 | 31.04978 | 34010 ft | 451 kts | 346° |
| 2026-04-20 12:46 | 32.46616 | 31.04088 | 34002 ft | 451 kts | 346° |
| 2026-04-20 12:46 | 32.52855 | 31.03194 | 33998 ft | 452 kts | 346° |
| 2026-04-20 12:47 | 32.59127 | 31.02297 | 33995 ft | 450 kts | 346° |
| 2026-04-20 12:47 | 32.65294 | 31.01422 | 33995 ft | 444 kts | 346° |
| 2026-04-20 12:48 | 32.71426 | 31.00544 | 33993 ft | 444 kts | 345° |
| 2026-04-20 12:48 | 32.77559 | 30.99660 | 33994 ft | 444 kts | 345° |
| 2026-04-20 12:49 | 32.83693 | 30.98778 | 33990 ft | 444 kts | 345° |
| 2026-04-20 12:49 | 32.89833 | 30.97894 | 33992 ft | 444 kts | 345° |
| 2026-04-20 12:50 | 32.95966 | 30.97012 | 33988 ft | 444 kts | 345° |
| 2026-04-20 12:50 | 33.02097 | 30.96127 | 33990 ft | 444 kts | 345° |
| 2026-04-20 12:51 | 33.08083 | 30.94695 | 33989 ft | 431 kts | 333° |
| 2026-04-20 12:51 | 33.13293 | 30.91527 | 33983 ft | 419 kts | 321° |
| 2026-04-20 12:52 | 33.18097 | 30.87619 | 33984 ft | 417 kts | 318° |
| 2026-04-20 12:52 | 33.22813 | 30.83575 | 33986 ft | 417 kts | 318° |
| 2026-04-20 12:53 | 33.27527 | 30.79538 | 33986 ft | 417 kts | 318° |
| 2026-04-20 12:53 | 33.29207 | 30.78108 | 33985 ft | 417 kts | 318° |
| 2026-04-20 12:54 | 33.33144 | 30.74768 | 33985 ft | 417 kts | 318° |
| 2026-04-20 12:54 | 33.37886 | 30.70753 | 33984 ft | 417 kts | 318° |
| 2026-04-20 12:55 | 33.43396 | 30.66081 | 33987 ft | 417 kts | 318° |
| 2026-04-20 12:55 | 33.47331 | 30.62738 | 33980 ft | 417 kts | 318° |
| 2026-04-20 12:56 | 33.52058 | 30.58717 | 33983 ft | 417 kts | 318° |
| 2026-04-20 12:56 | 33.56779 | 30.54695 | 33983 ft | 417 kts | 318° |
| 2026-04-20 12:57 | 33.61506 | 30.50663 | 33986 ft | 417 kts | 318° |
| 2026-04-20 12:57 | 33.66229 | 30.46628 | 33983 ft | 417 kts | 318° |
| 2026-04-20 12:58 | 33.70955 | 30.42586 | 33992 ft | 417 kts | 318° |
| 2026-04-20 12:58 | 33.75668 | 30.38549 | 33986 ft | 415 kts | 318° |
| 2026-04-20 12:59 | 33.80343 | 30.34540 | 33985 ft | 416 kts | 318° |
| 2026-04-20 12:59 | 33.85055 | 30.30492 | 33985 ft | 416 kts | 318° |
| 2026-04-20 13:00 | 33.89764 | 30.26441 | 33985 ft | 416 kts | 318° |
| 2026-04-20 13:00 | 33.94472 | 30.22387 | 33988 ft | 416 kts | 318° |
| 2026-04-20 13:01 | 33.99177 | 30.18329 | 34016 ft | 415 kts | 318° |
| 2026-04-20 13:01 | 34.03270 | 30.14793 | 33988 ft | 416 kts | 318° |
| 2026-04-20 13:02 | 34.07971 | 30.10728 | 33998 ft | 416 kts | 319° |
| 2026-04-20 13:02 | 34.12739 | 30.06745 | 33988 ft | 417 kts | 320° |
| 2026-04-20 13:03 | 34.17577 | 30.02885 | 33988 ft | 417 kts | 321° |
| 2026-04-20 13:03 | 34.22418 | 29.99020 | 33988 ft | 417 kts | 320° |
| 2026-04-20 13:04 | 34.27217 | 29.95152 | 33990 ft | 420 kts | 320° |
| 2026-04-20 13:04 | 34.32071 | 29.91219 | 33989 ft | 418 kts | 321° |
| 2026-04-20 13:05 | 34.36894 | 29.87307 | 33984 ft | 416 kts | 320° |
| 2026-04-20 13:05 | 34.41702 | 29.83400 | 33987 ft | 416 kts | 320° |
| 2026-04-20 13:06 | 34.46514 | 29.79483 | 33986 ft | 416 kts | 321° |
| 2026-04-20 13:06 | 34.51308 | 29.75577 | 33990 ft | 415 kts | 321° |
| 2026-04-20 13:07 | 34.56105 | 29.71664 | 33991 ft | 415 kts | 321° |
| 2026-04-20 13:07 | 34.60871 | 29.67769 | 33975 ft | 415 kts | 321° |
| 2026-04-20 13:08 | 34.65666 | 29.63847 | 33986 ft | 415 kts | 321° |
| 2026-04-20 13:08 | 34.70462 | 29.59917 | 33987 ft | 415 kts | 321° |
| 2026-04-20 13:09 | 34.75254 | 29.55985 | 33987 ft | 415 kts | 321° |
| 2026-04-20 13:09 | 34.80040 | 29.52051 | 33988 ft | 415 kts | 321° |
| 2026-04-20 13:10 | 34.84820 | 29.48117 | 34000 ft | 415 kts | 321° |
| 2026-04-20 13:10 | 34.89601 | 29.44178 | 33985 ft | 415 kts | 321° |
| 2026-04-20 13:11 | 34.94377 | 29.40238 | 33984 ft | 415 kts | 321° |
| 2026-04-20 13:11 | 34.99124 | 29.36315 | 33982 ft | 415 kts | 321° |
| 2026-04-20 13:12 | 35.03901 | 29.32362 | 33982 ft | 415 kts | 321° |
| 2026-04-20 13:12 | 35.08681 | 29.28400 | 33977 ft | 415 kts | 321° |
| 2026-04-20 13:13 | 35.13449 | 29.24443 | 33977 ft | 415 kts | 321° |
| 2026-04-20 13:13 | 35.18213 | 29.20483 | 33979 ft | 413 kts | 321° |
| 2026-04-20 13:14 | 35.22960 | 29.16533 | 33976 ft | 412 kts | 321° |
| 2026-04-20 13:14 | 35.27702 | 29.12580 | 33977 ft | 412 kts | 321° |
| 2026-04-20 13:15 | 35.32440 | 29.08625 | 33974 ft | 412 kts | 321° |
| 2026-04-20 13:15 | 35.37180 | 29.04662 | 33974 ft | 412 kts | 321° |
| 2026-04-20 13:16 | 35.41890 | 29.00719 | 33976 ft | 412 kts | 321° |
| 2026-04-20 13:16 | 35.46659 | 28.96720 | 33971 ft | 413 kts | 321° |
| 2026-04-20 13:17 | 35.51369 | 28.92766 | 33972 ft | 413 kts | 321° |
| 2026-04-20 13:17 | 35.56100 | 28.88789 | 33966 ft | 412 kts | 321° |
| 2026-04-20 13:18 | 35.60837 | 28.84800 | 33966 ft | 412 kts | 321° |
| 2026-04-20 13:18 | 35.65567 | 28.80811 | 33965 ft | 412 kts | 321° |
| 2026-04-20 13:19 | 35.70264 | 28.76844 | 33964 ft | 412 kts | 321° |
| 2026-04-20 13:19 | 35.74998 | 28.72840 | 33963 ft | 414 kts | 321° |
| 2026-04-20 13:20 | 35.79753 | 28.68813 | 33963 ft | 415 kts | 321° |
| 2026-04-20 13:20 | 35.84502 | 28.64785 | 33962 ft | 415 kts | 321° |
| 2026-04-20 13:21 | 35.89253 | 28.60749 | 33961 ft | 415 kts | 321° |
| 2026-04-20 13:21 | 35.94006 | 28.56705 | 33960 ft | 415 kts | 321° |
| 2026-04-20 13:22 | 35.98754 | 28.52660 | 33960 ft | 415 kts | 321° |
| 2026-04-20 13:22 | 36.03506 | 28.48604 | 33955 ft | 415 kts | 321° |
| 2026-04-20 13:23 | 36.08265 | 28.44537 | 33956 ft | 415 kts | 321° |
| 2026-04-20 13:23 | 36.12982 | 28.40501 | 33942 ft | 415 kts | 321° |
| 2026-04-20 13:24 | 36.17726 | 28.36434 | 33935 ft | 415 kts | 321° |
| 2026-04-20 13:24 | 36.22468 | 28.32364 | 33930 ft | 414 kts | 321° |
| 2026-04-20 13:25 | 36.27200 | 28.28296 | 33934 ft | 414 kts | 321° |
| 2026-04-20 13:25 | 36.31930 | 28.24223 | 33936 ft | 414 kts | 321° |
| 2026-04-20 13:26 | 36.36674 | 28.20132 | 33928 ft | 414 kts | 321° |
| 2026-04-20 13:26 | 36.41404 | 28.16048 | 33935 ft | 414 kts | 321° |
| 2026-04-20 13:27 | 36.46108 | 28.11979 | 33944 ft | 414 kts | 321° |
| 2026-04-20 13:27 | 36.50835 | 28.07884 | 33944 ft | 414 kts | 321° |
| 2026-04-20 13:28 | 36.55560 | 28.03785 | 33962 ft | 413 kts | 321° |
| 2026-04-20 13:28 | 36.60280 | 27.99684 | 33940 ft | 413 kts | 321° |
| 2026-04-20 13:29 | 36.64997 | 27.95579 | 33940 ft | 414 kts | 321° |
| 2026-04-20 13:29 | 36.69716 | 27.91467 | 33944 ft | 414 kts | 321° |
| 2026-04-20 13:30 | 36.74438 | 27.87345 | 33941 ft | 414 kts | 321° |
| 2026-04-20 13:30 | 36.79154 | 27.83223 | 33955 ft | 414 kts | 321° |
| 2026-04-20 13:31 | 36.83836 | 27.79124 | 33966 ft | 414 kts | 321° |
| 2026-04-20 13:31 | 36.88586 | 27.74958 | 33958 ft | 415 kts | 321° |
| 2026-04-20 13:32 | 36.93308 | 27.70811 | 33964 ft | 415 kts | 321° |
| 2026-04-20 13:32 | 36.97996 | 27.66688 | 33960 ft | 415 kts | 321° |
| 2026-04-20 13:33 | 37.02706 | 27.62538 | 33947 ft | 415 kts | 321° |
| 2026-04-20 13:33 | 37.07432 | 27.58369 | 33948 ft | 415 kts | 321° |
| 2026-04-20 13:34 | 37.12153 | 27.54197 | 33962 ft | 415 kts | 321° |
| 2026-04-20 13:34 | 37.16896 | 27.49998 | 33943 ft | 418 kts | 321° |
| 2026-04-20 13:35 | 37.21644 | 27.45789 | 33947 ft | 418 kts | 321° |
| 2026-04-20 13:35 | 37.26383 | 27.41583 | 33949 ft | 417 kts | 321° |
| 2026-04-20 13:36 | 37.31118 | 27.37373 | 33966 ft | 417 kts | 321° |
| 2026-04-20 13:36 | 37.35850 | 27.33158 | 33977 ft | 417 kts | 321° |
| 2026-04-20 13:37 | 37.40581 | 27.28938 | 33978 ft | 417 kts | 321° |
| 2026-04-20 13:37 | 37.45312 | 27.24711 | 33977 ft | 417 kts | 321° |
| 2026-04-20 13:38 | 37.50011 | 27.20506 | 33985 ft | 417 kts | 321° |
| 2026-04-20 13:38 | 37.54747 | 27.16261 | 33977 ft | 417 kts | 321° |
| 2026-04-20 13:39 | 37.59457 | 27.12033 | 33970 ft | 415 kts | 321° |
| 2026-04-20 13:39 | 37.64158 | 27.07807 | 33970 ft | 415 kts | 321° |
| 2026-04-20 13:40 | 37.68872 | 27.03561 | 33965 ft | 417 kts | 321° |
| 2026-04-20 13:40 | 37.73599 | 26.99296 | 33966 ft | 418 kts | 321° |
| 2026-04-20 13:41 | 37.78333 | 26.95018 | 33969 ft | 418 kts | 321° |
| 2026-04-20 13:41 | 37.83072 | 26.90730 | 33972 ft | 418 kts | 321° |
| 2026-04-20 13:42 | 37.87005 | 26.87167 | 33974 ft | 418 kts | 321° |
| 2026-04-20 13:42 | 37.94075 | 26.80749 | 34006 ft | 416 kts | 321° |
| 2026-04-20 13:43 | 37.98792 | 26.76457 | 34002 ft | 418 kts | 322° |
| 2026-04-20 13:43 | 38.03527 | 26.72141 | 34004 ft | 419 kts | 321° |
| 2026-04-20 13:44 | 38.08253 | 26.67829 | 34004 ft | 419 kts | 321° |
| 2026-04-20 13:44 | 38.12983 | 26.63504 | 33996 ft | 419 kts | 321° |
| 2026-04-20 13:45 | 38.17681 | 26.59203 | 33996 ft | 419 kts | 321° |
| 2026-04-20 13:45 | 38.22410 | 26.54865 | 33999 ft | 419 kts | 322° |
| 2026-04-20 13:46 | 38.27141 | 26.50518 | 33997 ft | 420 kts | 322° |
| 2026-04-20 13:46 | 38.31881 | 26.46156 | 33996 ft | 420 kts | 322° |
| 2026-04-20 13:47 | 38.36619 | 26.41790 | 33996 ft | 420 kts | 322° |
| 2026-04-20 13:47 | 38.41355 | 26.37417 | 34002 ft | 420 kts | 322° |
| 2026-04-20 13:48 | 38.46091 | 26.33038 | 34001 ft | 420 kts | 322° |
| 2026-04-20 13:48 | 38.50830 | 26.28647 | 34006 ft | 421 kts | 322° |
| 2026-04-20 13:49 | 38.55575 | 26.24244 | 34000 ft | 422 kts | 322° |
| 2026-04-20 13:49 | 38.60322 | 26.19833 | 34002 ft | 421 kts | 322° |
| 2026-04-20 13:50 | 38.65030 | 26.15450 | 34001 ft | 421 kts | 322° |
| 2026-04-20 13:50 | 38.69766 | 26.11034 | 34002 ft | 421 kts | 322° |
| 2026-04-20 13:51 | 38.74503 | 26.06609 | 34004 ft | 421 kts | 322° |
| 2026-04-20 13:51 | 38.79243 | 26.02174 | 34001 ft | 422 kts | 322° |
| 2026-04-20 13:52 | 38.83985 | 25.97730 | 34004 ft | 422 kts | 322° |
| 2026-04-20 13:52 | 38.88729 | 25.93276 | 34001 ft | 422 kts | 322° |
| 2026-04-20 13:53 | 38.93470 | 25.88818 | 34001 ft | 421 kts | 322° |
| 2026-04-20 13:53 | 38.98168 | 25.84392 | 34002 ft | 421 kts | 322° |
| 2026-04-20 13:54 | 39.02900 | 25.79927 | 34007 ft | 422 kts | 322° |
| 2026-04-20 13:54 | 39.07633 | 25.75453 | 33999 ft | 422 kts | 322° |
| 2026-04-20 13:55 | 39.12368 | 25.70971 | 33999 ft | 422 kts | 322° |
| 2026-04-20 13:55 | 39.17102 | 25.66481 | 33998 ft | 422 kts | 322° |
| 2026-04-20 13:56 | 39.21831 | 25.61989 | 33993 ft | 422 kts | 322° |
| 2026-04-20 13:56 | 39.26538 | 25.57509 | 33992 ft | 420 kts | 322° |
| 2026-04-20 13:57 | 39.31237 | 25.53029 | 33993 ft | 420 kts | 322° |
| 2026-04-20 13:57 | 39.35931 | 25.48547 | 33991 ft | 420 kts | 322° |
| 2026-04-20 13:58 | 39.40631 | 25.44050 | 33994 ft | 420 kts | 322° |
| 2026-04-20 13:58 | 39.45293 | 25.39584 | 33995 ft | 420 kts | 322° |
| 2026-04-20 13:59 | 39.49985 | 25.35080 | 33990 ft | 420 kts | 322° |
| 2026-04-20 13:59 | 39.54670 | 25.30576 | 33996 ft | 419 kts | 322° |
| 2026-04-20 14:00 | 39.59334 | 25.26083 | 33990 ft | 416 kts | 322° |
| 2026-04-20 14:00 | 39.63982 | 25.21599 | 33983 ft | 416 kts | 322° |
| 2026-04-20 14:01 | 39.68630 | 25.17107 | 33978 ft | 416 kts | 322° |
| 2026-04-20 14:01 | 39.73278 | 25.12607 | 33970 ft | 416 kts | 322° |
| 2026-04-20 14:02 | 39.77893 | 25.08131 | 33973 ft | 416 kts | 322° |
| 2026-04-20 14:02 | 39.82536 | 25.03621 | 33977 ft | 417 kts | 322° |
| 2026-04-20 14:03 | 39.87176 | 24.99106 | 33965 ft | 416 kts | 322° |
| 2026-04-20 14:03 | 39.91808 | 24.94591 | 33975 ft | 415 kts | 322° |
| 2026-04-20 14:04 | 39.96428 | 24.90080 | 33973 ft | 415 kts | 322° |
| 2026-04-20 14:04 | 40.01045 | 24.85563 | 33976 ft | 415 kts | 322° |
| 2026-04-20 14:05 | 40.05661 | 24.81040 | 33980 ft | 415 kts | 322° |
| 2026-04-20 14:05 | 40.10280 | 24.76506 | 33977 ft | 415 kts | 322° |
| 2026-04-20 14:06 | 40.14861 | 24.72001 | 33971 ft | 415 kts | 322° |
| 2026-04-20 14:06 | 40.19477 | 24.67455 | 33969 ft | 415 kts | 322° |
| 2026-04-20 14:07 | 40.24090 | 24.62903 | 33974 ft | 415 kts | 322° |
| 2026-04-20 14:07 | 40.28694 | 24.58353 | 33972 ft | 415 kts | 322° |
| 2026-04-20 14:08 | 40.33297 | 24.53794 | 33974 ft | 415 kts | 322° |
| 2026-04-20 14:08 | 40.37904 | 24.49225 | 33968 ft | 415 kts | 322° |
| 2026-04-20 14:09 | 40.42477 | 24.44681 | 33970 ft | 415 kts | 322° |
| 2026-04-20 14:09 | 40.47082 | 24.40097 | 33959 ft | 415 kts | 322° |
| 2026-04-20 14:10 | 40.51681 | 24.35511 | 33966 ft | 415 kts | 322° |
| 2026-04-20 14:10 | 40.56273 | 24.30924 | 33962 ft | 414 kts | 322° |
| 2026-04-20 14:11 | 40.60859 | 24.26335 | 33966 ft | 414 kts | 322° |
| 2026-04-20 14:11 | 40.65439 | 24.21744 | 33958 ft | 414 kts | 322° |
| 2026-04-20 14:12 | 40.70018 | 24.17145 | 33959 ft | 414 kts | 322° |
| 2026-04-20 14:12 | 40.74594 | 24.12542 | 33956 ft | 414 kts | 322° |
| 2026-04-20 14:13 | 40.79172 | 24.07928 | 33951 ft | 414 kts | 322° |
| 2026-04-20 14:13 | 40.83737 | 24.03319 | 33944 ft | 413 kts | 322° |
| 2026-04-20 14:14 | 40.88299 | 23.98706 | 33949 ft | 412 kts | 322° |
| 2026-04-20 14:14 | 40.92822 | 23.94124 | 33944 ft | 412 kts | 322° |
| 2026-04-20 14:15 | 40.97365 | 23.89513 | 33938 ft | 412 kts | 322° |
| 2026-04-20 14:15 | 41.01908 | 23.84893 | 33934 ft | 411 kts | 321° |
| 2026-04-20 14:16 | 41.06445 | 23.80272 | 33932 ft | 411 kts | 321° |
| 2026-04-20 14:16 | 41.10979 | 23.75645 | 33933 ft | 411 kts | 321° |
| 2026-04-20 14:17 | 41.15505 | 23.71018 | 33926 ft | 409 kts | 321° |
| 2026-04-20 14:17 | 41.20022 | 23.66391 | 33926 ft | 409 kts | 321° |
| 2026-04-20 14:18 | 41.24523 | 23.61774 | 33920 ft | 408 kts | 321° |
| 2026-04-20 14:18 | 41.29026 | 23.57145 | 33927 ft | 409 kts | 321° |
| 2026-04-20 14:19 | 41.33526 | 23.52512 | 33926 ft | 409 kts | 321° |
| 2026-04-20 14:19 | 41.37987 | 23.47912 | 33916 ft | 409 kts | 321° |
| 2026-04-20 14:20 | 41.42820 | 23.43944 | 33935 ft | 409 kts | 330° |
| 2026-04-20 14:20 | 41.47898 | 23.40525 | 33931 ft | 409 kts | 332° |
| 2026-04-20 14:21 | 41.53013 | 23.37210 | 33930 ft | 408 kts | 332° |
| 2026-04-20 14:21 | 41.58121 | 23.33901 | 33934 ft | 408 kts | 332° |
| 2026-04-20 14:22 | 41.63211 | 23.30579 | 33931 ft | 407 kts | 332° |
| 2026-04-20 14:22 | 41.68300 | 23.27244 | 33943 ft | 407 kts | 332° |
| 2026-04-20 14:23 | 41.73392 | 23.23897 | 33938 ft | 407 kts | 332° |
| 2026-04-20 14:23 | 41.78479 | 23.20549 | 33921 ft | 407 kts | 332° |
| 2026-04-20 14:24 | 41.83557 | 23.17202 | 33943 ft | 407 kts | 332° |
| 2026-04-20 14:24 | 41.88597 | 23.13874 | 33941 ft | 405 kts | 332° |
| 2026-04-20 14:25 | 41.93656 | 23.10526 | 33928 ft | 405 kts | 332° |
| 2026-04-20 14:25 | 41.98709 | 23.07177 | 33930 ft | 405 kts | 332° |
| 2026-04-20 14:26 | 42.03758 | 23.03825 | 33945 ft | 405 kts | 332° |
| 2026-04-20 14:26 | 42.08805 | 23.00468 | 33933 ft | 404 kts | 332° |
| 2026-04-20 14:27 | 42.13838 | 22.97115 | 33930 ft | 403 kts | 332° |
| 2026-04-20 14:27 | 42.18822 | 22.93788 | 33930 ft | 403 kts | 332° |
| 2026-04-20 14:28 | 42.23845 | 22.90429 | 33931 ft | 403 kts | 332° |
| 2026-04-20 14:28 | 42.28865 | 22.87067 | 33941 ft | 402 kts | 331° |
| 2026-04-20 14:29 | 42.33859 | 22.83714 | 33933 ft | 400 kts | 331° |
| 2026-04-20 14:29 | 42.38837 | 22.80364 | 33936 ft | 399 kts | 331° |
| 2026-04-20 14:30 | 42.42974 | 22.77579 | 33930 ft | 399 kts | 331° |
| 2026-04-20 14:30 | 42.47935 | 22.74236 | 33940 ft | 397 kts | 331° |
| 2026-04-20 14:31 | 42.52875 | 22.70898 | 33942 ft | 397 kts | 331° |
| 2026-04-20 14:31 | 42.57817 | 22.67553 | 33944 ft | 397 kts | 331° |
| 2026-04-20 14:32 | 42.62754 | 22.64206 | 33946 ft | 397 kts | 331° |
| 2026-04-20 14:32 | 42.67696 | 22.60848 | 33947 ft | 397 kts | 331° |
| 2026-04-20 14:33 | 42.72632 | 22.57489 | 33958 ft | 396 kts | 331° |
| 2026-04-20 14:33 | 42.77586 | 22.54111 | 33957 ft | 401 kts | 331° |
| 2026-04-20 14:34 | 42.82561 | 22.50712 | 33960 ft | 403 kts | 331° |
| 2026-04-20 14:34 | 42.87366 | 22.46873 | 33964 ft | 399 kts | 326° |
| 2026-04-20 14:35 | 42.92044 | 22.42796 | 33976 ft | 399 kts | 325° |
| 2026-04-20 14:35 | 42.96696 | 22.38670 | 33979 ft | 399 kts | 325° |
| 2026-04-20 14:36 | 43.01342 | 22.34539 | 33982 ft | 399 kts | 325° |
| 2026-04-20 14:36 | 43.05990 | 22.30408 | 33977 ft | 398 kts | 325° |
| 2026-04-20 14:37 | 43.10627 | 22.26287 | 33983 ft | 397 kts | 325° |
| 2026-04-20 14:37 | 43.15261 | 22.22161 | 33985 ft | 397 kts | 325° |
| 2026-04-20 14:38 | 43.19888 | 22.18034 | 33999 ft | 397 kts | 324° |
| 2026-04-20 14:38 | 43.24518 | 22.13896 | 33992 ft | 397 kts | 324° |
| 2026-04-20 14:39 | 43.29143 | 22.09755 | 33992 ft | 396 kts | 324° |
| 2026-04-20 14:39 | 43.33748 | 22.05623 | 33989 ft | 395 kts | 324° |
| 2026-04-20 14:40 | 43.38344 | 22.01492 | 33986 ft | 394 kts | 324° |
| 2026-04-20 14:40 | 43.42934 | 21.97359 | 34007 ft | 395 kts | 324° |
| 2026-04-20 14:41 | 43.47496 | 21.93243 | 33995 ft | 394 kts | 324° |
| 2026-04-20 14:41 | 43.52080 | 21.89101 | 33995 ft | 394 kts | 324° |
| 2026-04-20 14:42 | 43.56664 | 21.84950 | 33991 ft | 394 kts | 324° |
| 2026-04-20 14:42 | 43.61249 | 21.80790 | 33992 ft | 394 kts | 324° |
| 2026-04-20 14:43 | 43.65829 | 21.76628 | 34013 ft | 394 kts | 323° |
| 2026-04-20 14:43 | 43.70421 | 21.72448 | 33988 ft | 395 kts | 323° |
| 2026-04-20 14:44 | 43.74985 | 21.68284 | 34011 ft | 395 kts | 323° |
| 2026-04-20 14:44 | 43.79560 | 21.64104 | 34008 ft | 394 kts | 323° |
| 2026-04-20 14:45 | 43.84147 | 21.59903 | 33990 ft | 398 kts | 323° |
| 2026-04-20 14:45 | 43.88758 | 21.55673 | 33982 ft | 395 kts | 323° |
| 2026-04-20 14:46 | 43.93330 | 21.51475 | 33988 ft | 394 kts | 323° |
| 2026-04-20 14:46 | 43.97895 | 21.47271 | 33989 ft | 394 kts | 323° |
| 2026-04-20 14:47 | 44.02461 | 21.43057 | 33989 ft | 394 kts | 323° |
| 2026-04-20 14:48 | 44.09310 | 21.36723 | 33991 ft | 394 kts | 323° |
| 2026-04-20 14:48 | 44.13869 | 21.32498 | 34019 ft | 394 kts | 323° |
| 2026-04-20 14:49 | 44.18432 | 21.28262 | 33991 ft | 394 kts | 323° |
| 2026-04-20 14:49 | 44.22993 | 21.24021 | 33993 ft | 393 kts | 323° |
| 2026-04-20 14:50 | 44.27512 | 21.19808 | 33987 ft | 393 kts | 323° |
| 2026-04-20 14:50 | 44.32060 | 21.15561 | 33990 ft | 393 kts | 323° |
| 2026-04-20 14:51 | 44.36600 | 21.11313 | 33986 ft | 393 kts | 323° |
| 2026-04-20 14:51 | 44.41145 | 21.07054 | 33991 ft | 393 kts | 322° |
| 2026-04-20 14:52 | 44.45685 | 21.02789 | 33994 ft | 392 kts | 322° |
| 2026-04-20 14:52 | 44.50198 | 20.98543 | 33991 ft | 391 kts | 322° |
| 2026-04-20 14:53 | 44.54686 | 20.94312 | 33991 ft | 391 kts | 322° |
| 2026-04-20 14:53 | 44.59198 | 20.90050 | 33992 ft | 391 kts | 322° |
| 2026-04-20 14:54 | 44.63703 | 20.85786 | 34009 ft | 391 kts | 322° |
| 2026-04-20 14:54 | 44.68226 | 20.81498 | 33993 ft | 391 kts | 322° |
| 2026-04-20 14:55 | 44.72709 | 20.77210 | 33993 ft | 389 kts | 321° |
| 2026-04-20 14:55 | 44.77076 | 20.72736 | 33996 ft | 388 kts | 320° |
| 2026-04-20 14:56 | 44.81397 | 20.68178 | 33996 ft | 388 kts | 319° |
| 2026-04-20 14:56 | 44.85718 | 20.63621 | 33999 ft | 388 kts | 320° |
| 2026-04-20 14:57 | 44.90053 | 20.59067 | 33994 ft | 388 kts | 320° |
| 2026-04-20 14:57 | 44.94373 | 20.54530 | 33995 ft | 387 kts | 320° |
| 2026-04-20 14:58 | 44.98662 | 20.50019 | 33995 ft | 387 kts | 319° |
| 2026-04-20 14:58 | 45.02974 | 20.45473 | 34001 ft | 387 kts | 319° |
| 2026-04-20 14:59 | 45.07285 | 20.40919 | 34001 ft | 387 kts | 319° |
| 2026-04-20 14:59 | 45.11591 | 20.36361 | 34004 ft | 386 kts | 319° |
| 2026-04-20 15:00 | 45.15896 | 20.31797 | 34000 ft | 387 kts | 319° |
| 2026-04-20 15:00 | 45.20199 | 20.27224 | 34010 ft | 386 kts | 319° |
| 2026-04-20 15:01 | 45.24503 | 20.22642 | 33998 ft | 386 kts | 319° |
| 2026-04-20 15:01 | 45.28799 | 20.18059 | 34001 ft | 387 kts | 319° |
| 2026-04-20 15:02 | 45.33096 | 20.13467 | 34000 ft | 387 kts | 319° |
| 2026-04-20 15:02 | 45.37388 | 20.08872 | 34001 ft | 385 kts | 319° |
| 2026-04-20 15:03 | 45.41641 | 20.04310 | 34001 ft | 384 kts | 319° |
| 2026-04-20 15:03 | 45.45909 | 19.99720 | 33996 ft | 385 kts | 319° |
| 2026-04-20 15:04 | 45.50178 | 19.95121 | 33996 ft | 385 kts | 319° |
| 2026-04-20 15:04 | 45.54443 | 19.90519 | 33996 ft | 384 kts | 319° |
| 2026-04-20 15:05 | 45.58707 | 19.85909 | 33997 ft | 384 kts | 318° |
| 2026-04-20 15:05 | 45.62947 | 19.81317 | 33982 ft | 381 kts | 318° |
| 2026-04-20 15:06 | 45.67177 | 19.76725 | 33993 ft | 383 kts | 318° |
| 2026-04-20 15:06 | 45.71107 | 19.72448 | 33991 ft | 384 kts | 318° |
| 2026-04-20 15:07 | 45.75364 | 19.67809 | 33988 ft | 385 kts | 318° |
| 2026-04-20 15:07 | 45.79616 | 19.63168 | 33993 ft | 385 kts | 318° |
| 2026-04-20 15:08 | 45.83876 | 19.58508 | 33995 ft | 385 kts | 318° |
| 2026-04-20 15:08 | 45.87251 | 19.54867 | 33993 ft | 385 kts | 319° |
| 2026-04-20 15:09 | 45.89931 | 19.52075 | 33994 ft | 385 kts | 319° |
| 2026-04-20 15:09 | 45.94285 | 19.47533 | 33990 ft | 388 kts | 319° |
| 2026-04-20 15:10 | 45.98620 | 19.42987 | 33990 ft | 388 kts | 319° |
| 2026-04-20 15:10 | 46.02984 | 19.38399 | 33990 ft | 388 kts | 319° |
| 2026-04-20 15:11 | 46.07330 | 19.33818 | 33987 ft | 385 kts | 319° |
| 2026-04-20 15:11 | 46.11647 | 19.29258 | 33987 ft | 384 kts | 319° |
| 2026-04-20 15:12 | 46.15953 | 19.24698 | 34027 ft | 384 kts | 319° |
| 2026-04-20 15:12 | 46.20276 | 19.20110 | 33985 ft | 388 kts | 319° |
| 2026-04-20 15:13 | 46.24632 | 19.15481 | 33988 ft | 389 kts | 319° |
| 2026-04-20 15:13 | 46.28979 | 19.10851 | 33991 ft | 388 kts | 319° |
| 2026-04-20 15:14 | 46.33269 | 19.06276 | 33989 ft | 384 kts | 319° |
| 2026-04-20 15:14 | 46.37560 | 19.01687 | 33984 ft | 383 kts | 319° |
| 2026-04-20 15:15 | 46.41848 | 18.97091 | 34014 ft | 383 kts | 319° |
| 2026-04-20 15:15 | 46.46163 | 18.92456 | 33987 ft | 389 kts | 319° |
| 2026-04-20 15:16 | 46.50526 | 18.87762 | 33980 ft | 390 kts | 319° |
| 2026-04-20 15:16 | 46.54880 | 18.83072 | 33985 ft | 388 kts | 318° |
| 2026-04-20 15:16 | 46.57040 | 18.80742 | 33767 ft | 385 kts | 318° |
| 2026-04-20 15:17 | 46.59187 | 18.78423 | 33494 ft | 382 kts | 318° |
| 2026-04-20 15:17 | 46.61312 | 18.76124 | 33216 ft | 380 kts | 318° |
| 2026-04-20 15:17 | 46.63429 | 18.73832 | 32937 ft | 377 kts | 318° |
| 2026-04-20 15:17 | 46.64822 | 18.72323 | 32774 ft | 376 kts | 318° |
| 2026-04-20 15:18 | 46.67595 | 18.69315 | 32427 ft | 372 kts | 318° |
| 2026-04-20 15:18 | 46.69671 | 18.67059 | 32191 ft | 374 kts | 318° |
| 2026-04-20 15:18 | 46.71055 | 18.65552 | 32020 ft | 375 kts | 318° |
| 2026-04-20 15:18 | 46.73150 | 18.63271 | 31760 ft | 375 kts | 317° |
| 2026-04-20 15:19 | 46.75242 | 18.60994 | 31499 ft | 373 kts | 317° |
| 2026-04-20 15:19 | 46.77312 | 18.58740 | 31253 ft | 370 kts | 317° |
| 2026-04-20 15:19 | 46.79361 | 18.56505 | 31009 ft | 366 kts | 317° |
| 2026-04-20 15:19 | 46.81390 | 18.54290 | 30759 ft | 362 kts | 317° |
| 2026-04-20 15:20 | 46.83400 | 18.52093 | 30503 ft | 360 kts | 317° |
| 2026-04-20 15:20 | 46.85399 | 18.49906 | 30261 ft | 358 kts | 317° |
| 2026-04-20 15:20 | 46.87385 | 18.47730 | 30012 ft | 355 kts | 317° |
| 2026-04-20 15:20 | 46.89329 | 18.45598 | 29710 ft | 353 kts | 317° |
| 2026-04-20 15:21 | 46.91289 | 18.43446 | 29408 ft | 353 kts | 317° |
| 2026-04-20 15:21 | 46.93252 | 18.41289 | 29136 ft | 352 kts | 317° |
| 2026-04-20 15:21 | 46.95213 | 18.39131 | 28892 ft | 353 kts | 317° |
| 2026-04-20 15:21 | 46.97182 | 18.36961 | 28611 ft | 356 kts | 317° |
| 2026-04-20 15:22 | 46.99168 | 18.34772 | 28337 ft | 357 kts | 317° |
| 2026-04-20 15:22 | 47.01149 | 18.32589 | 28072 ft | 356 kts | 317° |
| 2026-04-20 15:22 | 47.03120 | 18.30416 | 27795 ft | 354 kts | 317° |
| 2026-04-20 15:22 | 47.05081 | 18.28251 | 27524 ft | 352 kts | 317° |
| 2026-04-20 15:23 | 47.07036 | 18.26090 | 27257 ft | 351 kts | 317° |
| 2026-04-20 15:23 | 47.08984 | 18.23934 | 26995 ft | 351 kts | 317° |
| 2026-04-20 15:23 | 47.10926 | 18.21782 | 26725 ft | 350 kts | 317° |
| 2026-04-20 15:23 | 47.12869 | 18.19628 | 26465 ft | 349 kts | 317° |
| 2026-04-20 15:24 | 47.14810 | 18.17473 | 26184 ft | 349 kts | 317° |
| 2026-04-20 15:24 | 47.16751 | 18.15316 | 25592 ft | 351 kts | 317° |
| 2026-04-20 15:24 | 47.18691 | 18.13153 | 24703 ft | 361 kts | 317° |
| 2026-04-20 15:24 | 47.20752 | 18.10851 | 23714 ft | 373 kts | 317° |
| 2026-04-20 15:25 | 47.22824 | 18.08538 | 22661 ft | 383 kts | 317° |
| 2026-04-20 15:25 | 47.24953 | 18.06167 | 21962 ft | 383 kts | 318° |
| 2026-04-20 15:25 | 47.27063 | 18.03820 | 21435 ft | 378 kts | 318° |
| 2026-04-20 15:25 | 47.29146 | 18.01498 | 20916 ft | 373 kts | 318° |
| 2026-04-20 15:26 | 47.31200 | 17.99205 | 20442 ft | 368 kts | 318° |
| 2026-04-20 15:26 | 47.33229 | 17.96935 | 19955 ft | 363 kts | 318° |
| 2026-04-20 15:26 | 47.35226 | 17.94697 | 19470 ft | 359 kts | 318° |
| 2026-04-20 15:26 | 47.37204 | 17.92478 | 19012 ft | 355 kts | 317° |
| 2026-04-20 15:27 | 47.39162 | 17.90280 | 18534 ft | 352 kts | 317° |
| 2026-04-20 15:27 | 47.41100 | 17.88100 | 18058 ft | 349 kts | 318° |
| 2026-04-20 15:27 | 47.43019 | 17.85939 | 17535 ft | 345 kts | 318° |
| 2026-04-20 15:27 | 47.44925 | 17.83792 | 17012 ft | 342 kts | 318° |
| 2026-04-20 15:28 | 47.46811 | 17.81665 | 16523 ft | 339 kts | 318° |
| 2026-04-20 15:28 | 47.48665 | 17.79574 | 16211 ft | 331 kts | 319° |
| 2026-04-20 15:28 | 47.50469 | 17.77539 | 16027 ft | 320 kts | 318° |
| 2026-04-20 15:28 | 47.52214 | 17.75569 | 15816 ft | 311 kts | 318° |
| 2026-04-20 15:29 | 47.53888 | 17.73675 | 15601 ft | 302 kts | 318° |
| 2026-04-20 15:29 | 47.55534 | 17.71812 | 15394 ft | 293 kts | 318° |
| 2026-04-20 15:29 | 47.57131 | 17.70002 | 15186 ft | 285 kts | 318° |
| 2026-04-20 15:29 | 47.58686 | 17.68239 | 14976 ft | 278 kts | 318° |
| 2026-04-20 15:30 | 47.60197 | 17.66523 | 14769 ft | 271 kts | 319° |
| 2026-04-20 15:30 | 47.61679 | 17.64839 | 14567 ft | 264 kts | 319° |
| 2026-04-20 15:30 | 47.63124 | 17.63196 | 14360 ft | 258 kts | 319° |
| 2026-04-20 15:30 | 47.64535 | 17.61592 | 14158 ft | 253 kts | 319° |
| 2026-04-20 15:31 | 47.65915 | 17.60020 | 13936 ft | 248 kts | 319° |
| 2026-04-20 15:31 | 47.67282 | 17.58461 | 13619 ft | 248 kts | 319° |
| 2026-04-20 15:31 | 47.68646 | 17.56906 | 13255 ft | 247 kts | 319° |
| 2026-04-20 15:31 | 47.69991 | 17.55370 | 12886 ft | 247 kts | 319° |
| 2026-04-20 15:32 | 47.71350 | 17.53808 | 12514 ft | 247 kts | 317° |
| 2026-04-20 15:32 | 47.72593 | 17.52056 | 12145 ft | 245 kts | 308° |
| 2026-04-20 15:32 | 47.73549 | 17.49965 | 11786 ft | 244 kts | 295° |
| 2026-04-20 15:32 | 47.74136 | 17.47614 | 11429 ft | 243 kts | 282° |
| 2026-04-20 15:33 | 47.74327 | 17.45116 | 11033 ft | 245 kts | 270° |
| 2026-04-20 15:33 | 47.74220 | 17.42532 | 10435 ft | 255 kts | 266° |
| 2026-04-20 15:33 | 47.74023 | 17.39866 | 9857 ft | 264 kts | 265° |
| 2026-04-20 15:33 | 47.73811 | 17.37111 | 9247 ft | 271 kts | 265° |
| 2026-04-20 15:34 | 47.73600 | 17.34299 | 8631 ft | 277 kts | 265° |
| 2026-04-20 15:34 | 47.73388 | 17.31422 | 8039 ft | 283 kts | 266° |
| 2026-04-20 15:34 | 47.73174 | 17.28488 | 7450 ft | 287 kts | 266° |
| 2026-04-20 15:34 | 47.72959 | 17.25522 | 6928 ft | 289 kts | 266° |
| 2026-04-20 15:35 | 47.72746 | 17.22594 | 6746 ft | 279 kts | 266° |
| 2026-04-20 15:35 | 47.72541 | 17.19798 | 6684 ft | 265 kts | 266° |
| 2026-04-20 15:35 | 47.72347 | 17.17135 | 6585 ft | 254 kts | 266° |
| 2026-04-20 15:35 | 47.72163 | 17.14619 | 6515 ft | 243 kts | 266° |
| 2026-04-20 15:36 | 47.71984 | 17.12167 | 6429 ft | 233 kts | 266° |
| 2026-04-20 15:36 | 47.71812 | 17.09811 | 6348 ft | 223 kts | 267° |
| 2026-04-20 15:36 | 47.71649 | 17.07578 | 6290 ft | 211 kts | 266° |
| 2026-04-20 15:36 | 47.71507 | 17.05467 | 6208 ft | 200 kts | 268° |
| 2026-04-20 15:37 | 47.71409 | 17.03426 | 6127 ft | 197 kts | 270° |
| 2026-04-20 15:37 | 47.71339 | 17.01419 | 6050 ft | 193 kts | 271° |
| 2026-04-20 15:37 | 47.71284 | 16.99437 | 5993 ft | 192 kts | 271° |
| 2026-04-20 15:37 | 47.71235 | 16.97478 | 5910 ft | 192 kts | 271° |
| 2026-04-20 15:38 | 47.71185 | 16.95496 | 5830 ft | 192 kts | 271° |
| 2026-04-20 15:38 | 47.71131 | 16.93518 | 5750 ft | 191 kts | 271° |
| 2026-04-20 15:38 | 47.71074 | 16.91555 | 5673 ft | 190 kts | 271° |
| 2026-04-20 15:38 | 47.71016 | 16.89595 | 5595 ft | 190 kts | 271° |
| 2026-04-20 15:39 | 47.70859 | 16.87631 | 5508 ft | 192 kts | 264° |
| 2026-04-20 15:39 | 47.70579 | 16.85686 | 5416 ft | 193 kts | 262° |
| 2026-04-20 15:39 | 47.70255 | 16.83764 | 5322 ft | 192 kts | 260° |
| 2026-04-20 15:39 | 47.69919 | 16.81852 | 5223 ft | 191 kts | 263° |
| 2026-04-20 15:40 | 47.69782 | 16.79902 | 5111 ft | 189 kts | 274° |
| 2026-04-20 15:40 | 47.69981 | 16.77994 | 5021 ft | 185 kts | 289° |
| 2026-04-20 15:40 | 47.70603 | 16.76352 | 4983 ft | 184 kts | 311° |
| 2026-04-20 15:40 | 47.71599 | 16.75162 | 4986 ft | 185 kts | 326° |
| 2026-04-20 15:41 | 47.72749 | 16.74357 | 4980 ft | 186 kts | 336° |
| 2026-04-20 15:41 | 47.73999 | 16.73761 | 4980 ft | 187 kts | 341° |
| 2026-04-20 15:41 | 47.75241 | 16.73238 | 4981 ft | 187 kts | 341° |
| 2026-04-20 15:41 | 47.76481 | 16.72721 | 4979 ft | 184 kts | 341° |
| 2026-04-20 15:42 | 47.77714 | 16.72209 | 4987 ft | 183 kts | 341° |
| 2026-04-20 15:42 | 47.78935 | 16.71702 | 4987 ft | 182 kts | 341° |
| 2026-04-20 15:42 | 47.80161 | 16.71192 | 4986 ft | 182 kts | 341° |
| 2026-04-20 15:42 | 47.81381 | 16.70684 | 4984 ft | 181 kts | 340° |
| 2026-04-20 15:43 | 47.82592 | 16.70179 | 4984 ft | 181 kts | 341° |
| 2026-04-20 15:43 | 47.83805 | 16.69671 | 4985 ft | 181 kts | 341° |
| 2026-04-20 15:43 | 47.85022 | 16.69161 | 4986 ft | 182 kts | 341° |
| 2026-04-20 15:43 | 47.86247 | 16.68647 | 4994 ft | 183 kts | 341° |
| 2026-04-20 15:44 | 47.87472 | 16.68133 | 4981 ft | 183 kts | 341° |
| 2026-04-20 15:44 | 47.88699 | 16.67621 | 4844 ft | 182 kts | 341° |
| 2026-04-20 15:44 | 47.89894 | 16.67122 | 4594 ft | 179 kts | 341° |
| 2026-04-20 15:44 | 47.91099 | 16.66615 | 4299 ft | 177 kts | 341° |
| 2026-04-20 15:45 | 47.92263 | 16.66126 | 4031 ft | 175 kts | 342° |
| 2026-04-20 15:45 | 47.93434 | 16.65635 | 3795 ft | 174 kts | 341° |
| 2026-04-20 15:45 | 47.94602 | 16.65144 | 3548 ft | 173 kts | 341° |
| 2026-04-20 15:45 | 47.95756 | 16.64658 | 3328 ft | 172 kts | 342° |
| 2026-04-20 15:46 | 47.96909 | 16.64173 | 3093 ft | 171 kts | 341° |
| 2026-04-20 15:46 | 47.98043 | 16.63696 | 2854 ft | 168 kts | 341° |
| 2026-04-20 15:46 | 47.99177 | 16.63218 | 2631 ft | 171 kts | 342° |
| 2026-04-20 15:46 | 48.00298 | 16.62747 | 2409 ft | 163 kts | 343° |
| 2026-04-20 15:47 | 48.01378 | 16.62294 | 2186 ft | 160 kts | 342° |
| 2026-04-20 15:47 | 48.02443 | 16.61843 | 1975 ft | 159 kts | 342° |
| 2026-04-20 15:47 | 48.03500 | 16.61395 | 1761 ft | 157 kts | 342° |
| 2026-04-20 15:47 | 48.04554 | 16.60956 | 1551 ft | 157 kts | 341° |
| 2026-04-20 15:48 | 48.05599 | 16.60488 | 1374 ft | 156 kts | 340° |
| 2026-04-20 15:48 | 48.06628 | 16.60043 | 1117 ft | 150 kts | 339° |
| 2026-04-20 15:48 | 48.07594 | 16.59664 | 936 ft | 138 kts | 333° |
| 2026-04-20 15:48 | 48.08508 | 16.59289 | 746 ft | 139 kts | 344° |
| 2026-04-20 15:49 | 48.09433 | 16.58910 | 627 ft | 127 kts | 343° |
| 2026-04-20 15:49 | 48.10042 | 16.58645 | 628 ft | 59 kts | 343° |
| 2026-04-20 15:49 | 48.10411 | 16.58487 | 626 ft | 52 kts | 343° |
| 2026-04-20 15:49 | 48.10745 | 16.58347 | 621 ft | 45 kts | 343° |
| 2026-04-20 15:50 | 48.10986 | 16.58178 | 625 ft | 36 kts | 314° |
| 2026-04-20 15:50 | 48.11082 | 16.57950 | 626 ft | 24 kts | 294° |
| 2026-04-20 15:50 | 48.11134 | 16.57787 | 624 ft | 12 kts | 296° |
| 2026-04-20 15:50 | 48.11174 | 16.57665 | 628 ft | 15 kts | 296° |
| 2026-04-20 15:51 | 48.11222 | 16.57518 | 625 ft | 16 kts | 296° |
| 2026-04-20 15:51 | 48.11271 | 16.57368 | 627 ft | 16 kts | 296° |
| 2026-04-20 15:51 | 48.11322 | 16.57214 | 626 ft | 17 kts | 296° |
| 2026-04-20 15:51 | 48.11374 | 16.57058 | 628 ft | 17 kts | 296° |
| 2026-04-20 15:52 | 48.11428 | 16.56906 | 619 ft | 13 kts | 313° |
| 2026-04-20 15:52 | 48.11484 | 16.56895 | 626 ft | 10 kts | 12° |
| 2026-04-20 15:52 | 48.11562 | 16.56899 | 623 ft | 14 kts | 338° |
| 2026-04-20 15:53 | 48.11674 | 16.56772 | 628 ft | 9 kts | 12° |
| 2026-04-20 15:53 | 48.11700 | 16.56787 | 616 ft | 0 kts | 28° |